createdAt,value
2024-02-12T00:03:58.782Z,11.00
2024-02-12T00:09:01.318Z,10.70
2024-02-12T00:14:05.411Z,9.00
2024-02-12T00:19:10.717Z,8.90
2024-02-12T00:24:15.418Z,7.50
2024-02-12T00:29:18.083Z,8.70
2024-02-12T00:34:22.194Z,7.50
2024-02-12T00:39:25.214Z,7.10
2024-02-12T00:44:27.780Z,8.00
2024-02-12T00:49:30.348Z,8.10
2024-02-12T00:54:33.511Z,7.50
2024-02-12T00:59:39.956Z,7.80
2024-02-12T01:04:42.425Z,6.30
2024-02-12T01:09:45.270Z,6.40
2024-02-12T01:14:47.751Z,8.10
2024-02-12T01:19:54.211Z,6.70
2024-02-12T01:24:59.699Z,6.80
2024-02-12T01:30:04.427Z,7.90
2024-02-12T01:35:07.217Z,7.00
2024-02-12T01:40:12.658Z,7.70
2024-02-12T01:45:17.536Z,8.10
2024-02-12T01:50:20.359Z,8.40
2024-02-12T01:55:24.632Z,7.40
2024-02-12T02:00:28.124Z,8.70
2024-02-12T02:05:31.605Z,9.90
2024-02-12T02:10:34.102Z,10.20
2024-02-12T02:15:36.607Z,8.40
2024-02-12T02:20:39.191Z,10.00
2024-02-12T02:25:42.626Z,11.40
2024-02-12T02:30:45.271Z,9.00
2024-02-12T02:35:49.035Z,11.40
2024-02-12T02:40:51.501Z,13.00
2024-02-12T02:45:55.865Z,11.60
2024-02-12T02:50:58.691Z,13.40
2024-02-12T02:56:01.237Z,14.40
2024-02-12T03:01:04.858Z,12.30
2024-02-12T03:06:07.852Z,11.00
2024-02-12T03:11:10.938Z,14.80
2024-02-12T03:16:19.557Z,15.90
2024-02-12T03:21:23.429Z,15.10
2024-02-12T03:26:25.900Z,17.10
2024-02-12T03:31:28.368Z,16.60
2024-02-12T03:36:31.193Z,16.90
2024-02-12T03:41:33.709Z,17.40
2024-02-12T03:46:46.845Z,13.70
2024-02-12T03:52:05.843Z,14.80
2024-02-12T03:57:24.247Z,18.30
2024-02-12T04:02:28.900Z,15.20
2024-02-12T04:07:31.435Z,14.40
2024-02-12T04:12:34.671Z,16.10
2024-02-12T04:17:38.484Z,17.90
2024-02-12T04:22:41.097Z,18.10
2024-02-12T04:27:45.122Z,16.90
2024-02-12T04:32:48.321Z,14.70
2024-02-12T04:37:50.934Z,18.10
2024-02-12T04:42:58.695Z,19.30
2024-02-12T04:48:01.303Z,17.70
2024-02-12T04:53:04.021Z,18.20
2024-02-12T04:58:06.766Z,14.60
2024-02-12T05:03:09.402Z,15.70
2024-02-12T05:08:12.098Z,18.30
2024-02-12T05:13:14.674Z,17.70
2024-02-12T05:18:32.126Z,15.90
2024-02-12T05:23:35.971Z,19.40
2024-02-12T05:28:38.461Z,18.60
2024-02-12T05:33:41.032Z,15.20
2024-02-12T05:38:47.489Z,15.60
2024-02-12T05:43:50.122Z,23.40
2024-02-12T05:48:53.542Z,18.70
2024-02-12T05:53:56.127Z,18.80
2024-02-12T05:58:58.675Z,16.70
2024-02-12T06:04:01.209Z,15.90
2024-02-12T06:09:04.674Z,12.50
2024-02-12T06:14:08.897Z,16.10
2024-02-12T06:19:11.469Z,21.10
2024-02-12T06:24:14.667Z,23.90
2024-02-12T06:29:17.307Z,20.20
2024-02-12T06:34:19.867Z,19.70
2024-02-12T06:39:22.336Z,18.70
2024-02-12T06:44:24.854Z,20.30
2024-02-12T06:49:27.258Z,22.10
2024-02-12T06:54:30.155Z,24.20
2024-02-12T06:59:32.593Z,25.80
2024-02-12T07:04:36.221Z,31.90
2024-02-12T07:09:38.764Z,20.80
2024-02-12T07:14:43.247Z,19.20
2024-02-12T07:19:52.724Z,23.40
2024-02-12T07:24:55.267Z,19.10
2024-02-12T07:29:58.031Z,23.70
2024-02-12T07:35:00.585Z,25.00
2024-02-12T07:40:08.891Z,23.20
2024-02-12T07:45:15.186Z,23.80
2024-02-12T07:50:17.873Z,23.50
2024-02-12T07:55:23.504Z,26.00
2024-02-12T08:00:26.479Z,22.90
2024-02-12T08:05:29.205Z,24.60
2024-02-12T08:10:31.790Z,25.20
2024-02-12T08:15:37.488Z,22.70
2024-02-12T08:20:40.147Z,18.00
2024-02-12T08:25:42.605Z,21.20
2024-02-12T08:30:45.223Z,18.70
2024-02-12T08:35:47.733Z,18.30
2024-02-12T08:40:51.282Z,17.20
2024-02-12T08:45:53.711Z,22.00
2024-02-12T08:50:56.413Z,17.30
2024-02-12T08:55:58.898Z,17.80
2024-02-12T09:01:01.988Z,18.00
2024-02-12T09:06:06.608Z,19.40
2024-02-12T09:11:10.270Z,22.20
2024-02-12T09:16:14.577Z,21.20
2024-02-12T09:21:18.358Z,22.20
2024-02-12T09:26:21.073Z,17.90
2024-02-12T09:31:24.056Z,23.00
2024-02-12T09:36:26.641Z,23.20
2024-02-12T09:41:31.199Z,25.90
2024-02-12T09:46:37.818Z,25.10
2024-02-12T09:51:41.053Z,32.90
2024-02-12T09:56:49.777Z,29.90
2024-02-12T10:01:53.111Z,21.60
2024-02-12T10:06:59.195Z,19.30
2024-02-12T10:12:08.993Z,14.80
2024-02-12T10:17:13.850Z,10.70
2024-02-12T10:22:21.629Z,10.40
2024-02-12T10:27:27.703Z,8.80
2024-02-12T10:32:30.721Z,9.20
2024-02-12T10:37:39.948Z,6.90
2024-02-12T10:42:51.223Z,7.10
2024-02-12T10:47:54.137Z,7.30
2024-02-12T10:52:59.084Z,4.80
2024-02-12T10:58:01.857Z,6.70
2024-02-12T11:03:05.490Z,5.00
2024-02-12T11:08:11.183Z,5.80
2024-02-12T11:13:17.570Z,5.10
2024-02-12T11:18:27.121Z,5.30
2024-02-12T11:23:31.612Z,6.00
2024-02-12T11:28:34.569Z,6.20
2024-02-12T11:33:42.042Z,5.50
2024-02-12T11:38:47.711Z,5.10
2024-02-12T11:43:50.408Z,5.60
2024-02-12T11:49:04.639Z,6.00
2024-02-12T11:54:11.023Z,5.90
2024-02-12T11:59:19.522Z,4.80
2024-02-12T12:04:22.269Z,4.80
2024-02-12T12:09:24.861Z,4.70
2024-02-12T12:14:27.466Z,4.90
2024-02-12T12:19:30.166Z,5.30
2024-02-12T12:24:34.086Z,5.00
2024-02-12T12:29:36.572Z,10.10
2024-02-12T12:34:39.018Z,5.20
2024-02-12T12:39:43.309Z,6.80
2024-02-12T12:44:47.403Z,6.40
2024-02-12T12:49:50.144Z,5.10
2024-02-12T12:54:52.520Z,6.70
2024-02-12T12:59:55.139Z,6.40
2024-02-12T13:04:57.547Z,5.00
2024-02-12T13:09:59.956Z,7.00
2024-02-12T13:15:03.276Z,5.60
2024-02-12T13:20:33.960Z,4.60
2024-02-12T13:25:36.772Z,5.80
2024-02-12T13:30:39.424Z,5.00
2024-02-12T13:35:47.617Z,6.80
2024-02-12T13:40:52.240Z,6.40
2024-02-12T13:45:55.389Z,6.10
2024-02-12T13:50:58.008Z,4.90
2024-02-12T13:56:01.559Z,5.50
2024-02-12T14:01:16.586Z,5.60
2024-02-12T14:06:30.589Z,6.30
2024-02-12T14:11:34.566Z,5.70
2024-02-12T14:16:37.609Z,4.70
2024-02-12T14:21:40.890Z,4.90
2024-02-12T14:26:58.707Z,5.90
2024-02-12T14:32:37.981Z,6.50
2024-02-12T14:37:29.794Z,6.20
2024-02-12T14:42:36.158Z,8.70
2024-02-12T14:47:42.390Z,6.10
2024-02-12T14:52:48.515Z,7.00
2024-02-12T14:57:51.233Z,7.10
2024-02-12T15:02:55.821Z,7.50
2024-02-12T15:07:59.514Z,7.00
2024-02-12T15:13:04.928Z,6.70
2024-02-12T15:18:11.392Z,6.40
2024-02-12T15:23:15.787Z,6.30
2024-02-12T15:28:18.503Z,7.00
2024-02-12T15:33:22.104Z,5.20
2024-02-12T15:38:26.753Z,6.40
2024-02-12T15:43:31.264Z,4.90
2024-02-12T15:48:34.224Z,4.70
2024-02-12T15:53:36.916Z,5.90
2024-02-12T15:58:39.387Z,12.10
2024-02-12T16:03:42.308Z,5.50
2024-02-12T16:08:45.877Z,9.90
2024-02-12T16:13:50.306Z,8.30
2024-02-12T16:18:55.428Z,9.70
2024-02-12T16:23:57.963Z,13.00
2024-02-12T16:29:01.549Z,12.80
2024-02-12T16:34:04.428Z,15.80
2024-02-12T16:39:08.097Z,15.20
2024-02-12T16:44:14.149Z,22.60
2024-02-12T16:49:16.907Z,14.00
2024-02-12T16:54:20.728Z,10.50
2024-02-12T16:59:23.310Z,7.30
2024-02-12T17:04:25.988Z,7.00
2024-02-12T17:09:28.491Z,6.80
2024-02-12T17:14:31.674Z,8.90
2024-02-12T17:19:34.787Z,5.80
2024-02-12T17:24:37.468Z,6.50
2024-02-12T17:29:40.886Z,6.30
2024-02-12T17:34:43.476Z,8.10
2024-02-12T17:39:47.514Z,10.60
2024-02-12T17:44:49.973Z,14.20
2024-02-12T17:49:53.510Z,11.20
2024-02-12T17:54:56.322Z,15.10
2024-02-12T17:59:59.600Z,15.40
2024-02-12T18:05:02.134Z,17.40
2024-02-12T18:10:06.905Z,24.50
2024-02-12T18:15:10.078Z,25.90
2024-02-12T18:20:15.928Z,13.00
2024-02-12T18:25:19.627Z,12.00
2024-02-12T18:30:23.337Z,11.10
2024-02-12T18:35:26.296Z,13.20
2024-02-12T18:40:29.002Z,11.90
2024-02-12T18:45:32.186Z,14.50
2024-02-12T18:50:35.133Z,18.00
2024-02-12T18:55:38.052Z,15.10
2024-02-12T19:00:43.100Z,19.20
2024-02-12T19:05:49.188Z,24.00
2024-02-12T19:10:51.945Z,16.10
2024-02-12T19:15:54.431Z,11.80
2024-02-12T19:20:59.666Z,17.10
2024-02-12T19:26:05.274Z,15.10
2024-02-12T19:31:07.876Z,17.70
2024-02-12T19:36:11.933Z,16.60
2024-02-12T19:41:14.485Z,16.20
2024-02-12T19:46:17.346Z,13.60
2024-02-12T19:51:19.855Z,14.20
2024-02-12T19:56:23.084Z,14.80
2024-02-12T20:01:25.566Z,18.70
2024-02-12T20:06:28.663Z,16.30
2024-02-12T20:11:32.634Z,11.20
2024-02-12T20:16:35.118Z,11.50
2024-02-12T20:21:37.734Z,7.20
2024-02-12T20:26:43.340Z,6.20
2024-02-12T20:31:47.405Z,6.30
2024-02-12T20:36:50.213Z,6.90
2024-02-12T20:41:54.145Z,6.00
2024-02-12T20:47:03.704Z,5.10
2024-02-12T20:52:08.280Z,7.30
2024-02-12T20:57:11.748Z,6.80
2024-02-12T21:02:14.356Z,6.50
2024-02-12T21:07:18.629Z,5.50
2024-02-12T21:12:22.116Z,5.20
2024-02-12T21:17:25.459Z,5.30
2024-02-12T21:22:28.259Z,5.30
2024-02-12T21:27:32.082Z,5.80
2024-02-12T21:32:36.787Z,6.70
2024-02-12T21:37:40.917Z,7.40
2024-02-12T21:42:45.457Z,7.50
2024-02-12T21:47:48.578Z,7.40
2024-02-12T21:52:51.972Z,6.90
2024-02-12T21:57:55.062Z,8.40
2024-02-12T22:02:57.627Z,7.00
2024-02-12T22:08:00.871Z,9.70
2024-02-12T22:13:05.688Z,8.20
2024-02-12T22:18:13.783Z,6.30
2024-02-12T22:23:16.528Z,6.00
2024-02-12T22:28:20.049Z,6.60
2024-02-12T22:33:23.608Z,6.10
2024-02-12T22:38:29.344Z,6.30
2024-02-12T22:43:32.937Z,5.70
2024-02-12T22:48:35.738Z,4.70
2024-02-12T22:53:38.386Z,4.50
2024-02-12T22:58:42.982Z,6.90
2024-02-12T23:03:45.786Z,5.00
2024-02-12T23:08:48.481Z,5.30
2024-02-12T23:13:50.982Z,4.40
2024-02-12T23:18:53.589Z,5.50
2024-02-12T23:23:56.528Z,4.90
2024-02-12T23:28:59.088Z,5.80
2024-02-12T23:34:02.157Z,4.10
2024-02-12T23:39:05.546Z,3.80
2024-02-12T23:44:08.035Z,3.40
2024-02-12T23:49:10.625Z,4.50
2024-02-12T23:54:13.198Z,5.00
2024-02-12T23:59:15.744Z,5.60
